createdAt,value
2018-06-17T05:34:24.739Z,34.4
2018-06-17T05:35:15.105Z,34.9
2018-06-17T05:36:05.162Z,35.3
2018-06-17T05:36:54.939Z,35.6
2018-06-17T05:37:45.263Z,36.1
2018-06-17T05:38:35.084Z,36.4
2018-06-17T05:39:25.406Z,36.8
2018-06-17T05:40:15.484Z,37.2
2018-06-17T05:41:05.523Z,37.4
2018-06-17T05:41:55.643Z,37.6
2018-06-17T05:42:45.722Z,37.6
2018-06-17T05:43:35.771Z,37.8
2018-06-17T05:44:25.615Z,37.8
2018-06-17T05:45:15.852Z,37.9
2018-06-17T05:46:05.638Z,37.9
2018-06-17T05:46:56.030Z,37.9
2018-06-17T05:47:46.062Z,37.9
2018-06-17T05:48:36.086Z,37.9
2018-06-17T05:49:26.151Z,37.9
2018-06-17T05:50:16.218Z,37.8
2018-06-17T05:51:06.017Z,37.8
2018-06-17T05:51:56.341Z,37.8
2018-06-17T05:52:46.409Z,37.8
2018-06-17T05:53:36.513Z,37.9
2018-06-17T05:54:26.578Z,38.1
2018-06-17T05:55:16.593Z,38.2
2018-06-17T05:56:06.671Z,38.3
2018-06-17T05:56:56.461Z,38.5
2018-06-17T05:57:46.811Z,38.7
2018-06-17T05:58:36.973Z,38.9
2018-06-17T05:59:26.688Z,39.1
2018-06-17T06:00:16.995Z,39.4
2018-06-17T06:01:07.070Z,39.8
2018-06-17T06:01:57.119Z,40.3
2018-06-17T06:02:47.193Z,40.9
2018-06-17T06:03:36.962Z,41.6
2018-06-17T06:04:26.769Z,42.2
2018-06-17T06:05:17.345Z,42.9
2018-06-17T06:06:07.473Z,43.4
2018-06-17T06:06:57.487Z,43.8
2018-06-17T06:07:47.563Z,44.3
2018-06-17T06:08:37.635Z,44.8
2018-06-17T06:09:27.395Z,45.3
2018-06-17T06:10:17.968Z,45.9
2018-06-17T06:11:07.539Z,46.6
2018-06-17T06:11:57.330Z,47.1
2018-06-17T06:12:47.922Z,47.4
2018-06-17T06:13:37.464Z,47.6
2018-06-17T06:14:28.070Z,47.6
2018-06-17T06:15:17.561Z,47.6
2018-06-17T06:16:07.968Z,47.6
2018-06-17T06:16:57.766Z,47.4
2018-06-17T06:17:48.062Z,47.4
2018-06-17T06:18:37.543Z,47.3
2018-06-17T06:19:28.467Z,47.1
2018-06-17T06:20:18.505Z,46.9
2018-06-17T06:21:08.559Z,46.7
2018-06-17T06:21:58.362Z,46.6
2018-06-17T06:22:48.702Z,46.4
2018-06-17T06:23:38.753Z,46.2
2018-06-17T06:24:28.320Z,46.1
2018-06-17T06:25:18.622Z,45.9
2018-06-17T06:26:08.931Z,45.8
2018-06-17T06:26:58.445Z,45.6
2018-06-17T06:27:49.117Z,45.5
2018-06-17T06:28:38.588Z,45.4
2018-06-17T06:29:28.952Z,45.4
2018-06-17T06:30:19.257Z,45.5
2018-06-17T06:31:09.323Z,45.6
2018-06-17T06:31:59.402Z,45.7
2018-06-17T06:32:49.462Z,45.9
2018-06-17T06:33:39.517Z,46.1
2018-06-17T06:34:29.574Z,46.6
2018-06-17T06:35:19.632Z,46.9
2018-06-17T06:36:09.707Z,47.2
2018-06-17T06:36:59.244Z,47.6
2018-06-17T06:37:49.830Z,48.4
2018-06-17T06:38:39.331Z,49.6
2018-06-17T06:39:29.688Z,50.7
2018-06-17T06:40:19.741Z,51.6
2018-06-17T06:41:10.106Z,52.3
2018-06-17T06:42:00.138Z,52.8
2018-06-17T06:42:50.213Z,53.3
2018-06-17T06:43:40.263Z,53.8
2018-06-17T06:44:30.073Z,54.1
2018-06-17T06:45:20.132Z,54.3
2018-06-17T06:46:10.456Z,54.3
2018-06-17T06:47:00.551Z,54.3
2018-06-17T06:47:50.319Z,54.3
2018-06-17T06:48:40.656Z,54.3
2018-06-17T06:49:30.422Z,54.2
2018-06-17T06:50:20.783Z,54.2
2018-06-17T06:51:10.617Z,54.1
2018-06-17T06:52:00.079Z,54
2018-06-17T06:52:50.723Z,53.9
2018-06-17T06:53:41.065Z,53.8
2018-06-17T06:54:31.103Z,53.8
2018-06-17T06:55:21.181Z,53.7
2018-06-17T06:56:10.971Z,53.8
2018-06-17T06:57:01.351Z,53.8
2018-06-17T06:57:51.386Z,53.8
2018-06-17T06:58:41.454Z,53.8
2018-06-17T06:59:31.500Z,53.9
2018-06-17T07:00:20.983Z,54.1
2018-06-17T07:01:11.053Z,54.6
2018-06-17T07:02:01.201Z,55.3
2018-06-17T07:02:51.740Z,56.5
2018-06-17T07:03:41.806Z,57.8
2018-06-17T07:04:31.850Z,59.1
2018-06-17T07:05:21.917Z,60.3
2018-06-17T07:06:11.717Z,61.5
2018-06-17T07:07:02.075Z,62.6
2018-06-17T07:07:52.085Z,63.8
2018-06-17T07:08:42.177Z,64.9
2018-06-17T07:09:32.242Z,66.1
2018-06-17T07:10:22.302Z,67.1
2018-06-17T07:11:11.797Z,68
2018-06-17T07:12:02.455Z,69
2018-06-17T07:12:52.489Z,70.4
2018-06-17T07:13:41.992Z,72.9
2018-06-17T07:14:32.609Z,71.7
2018-06-17T07:15:22.685Z,67.6
2018-06-17T07:16:12.523Z,60.1
2018-06-17T07:17:02.808Z,52.9
2018-06-17T07:17:52.318Z,49.6
2018-06-17T07:18:42.932Z,48.3
2018-06-17T07:19:32.993Z,48.1
2018-06-17T07:20:23.044Z,48.9
2018-06-17T07:21:12.875Z,50.3
2018-06-17T07:22:53.286Z,53.7
2018-06-17T07:23:43.320Z,55.6
2018-06-17T07:24:33.356Z,57.3
2018-06-17T07:25:23.435Z,58.9
2018-06-17T07:26:12.944Z,60.4
2018-06-17T07:27:03.278Z,61.5
2018-06-17T07:27:53.113Z,62.6
2018-06-17T07:28:43.400Z,63.4
2018-06-17T07:29:33.479Z,63.9
2018-06-17T07:30:23.804Z,64.4
2018-06-17T07:31:13.865Z,64.9
2018-06-17T07:32:03.652Z,65.6
2018-06-17T07:32:54.023Z,66.9
2018-06-17T07:33:43.875Z,68.3
2018-06-17T07:34:33.870Z,69.7
2018-06-17T07:35:23.644Z,72.7
2018-06-17T07:36:14.283Z,71.6
2018-06-17T07:37:04.377Z,68.9
2018-06-17T07:37:54.406Z,66
2018-06-17T07:38:44.456Z,62.6
2018-06-17T07:39:33.937Z,60
2018-06-17T07:40:24.613Z,59.4
2018-06-17T07:41:14.362Z,59.9
2018-06-17T07:42:04.445Z,61.4
2018-06-17T07:42:54.791Z,63.2
2018-06-17T07:43:45.089Z,65.1
2018-06-17T07:44:34.948Z,67.1
2018-06-17T07:45:24.410Z,69.9
2018-06-17T07:46:14.737Z,69.8
2018-06-17T07:47:05.100Z,69.1
2018-06-17T07:47:54.884Z,68.2
2018-06-17T07:48:44.949Z,65.3
2018-06-17T07:49:35.315Z,61.9
2018-06-17T07:50:24.782Z,59.9
2018-06-17T07:51:15.145Z,60
2018-06-17T07:52:05.472Z,60.9
2018-06-17T07:52:55.539Z,62.3
2018-06-17T07:53:45.339Z,63.4
2018-06-17T07:54:35.644Z,64.2
2018-06-17T07:55:25.747Z,64.1
2018-06-17T07:56:15.221Z,63.5
2018-06-17T07:57:05.909Z,62.4
2018-06-17T07:57:55.708Z,61.4
2018-06-17T07:58:46.011Z,61.4
2018-06-17T07:59:36.049Z,62.6
2018-06-17T08:00:26.091Z,63.9
2018-06-17T08:01:16.158Z,65.1
2018-06-17T08:02:05.956Z,65.8
2018-06-17T08:02:56.019Z,66
2018-06-17T08:03:46.351Z,65.9
2018-06-17T08:04:36.249Z,65.9
2018-06-17T08:05:26.488Z,65.9
2018-06-17T08:06:16.555Z,66.4
2018-06-17T08:07:06.599Z,66.8
2018-06-17T08:07:56.669Z,67.1
2018-06-17T08:08:46.743Z,67.4
2018-06-17T08:09:36.804Z,67.7
2018-06-17T08:10:26.878Z,67.8
2018-06-17T08:11:16.941Z,67.9
2018-06-17T08:12:06.728Z,68
2018-06-17T08:12:57.047Z,68.3
2018-06-17T08:13:47.110Z,68.4
2018-06-17T08:14:37.225Z,68.6
2018-06-17T08:15:27.248Z,68.9
2018-06-17T08:16:17.331Z,69
2018-06-17T08:17:07.396Z,69.1
2018-06-17T08:17:57.157Z,69.4
2018-06-17T08:18:47.526Z,69.6
2018-06-17T08:19:37.560Z,69.8
2018-06-17T08:20:27.634Z,69.9
2018-06-17T08:21:17.710Z,70.2
2018-06-17T08:22:07.784Z,70.4
2018-06-17T08:22:57.575Z,70.7
2018-06-17T08:23:47.615Z,70.8
2018-06-17T08:24:37.940Z,70.9
2018-06-17T08:25:27.477Z,71.1
2018-06-17T08:26:18.076Z,71.1
2018-06-17T08:27:08.138Z,71.2
2018-06-17T08:27:58.201Z,71.3
2018-06-17T08:28:48.016Z,71.6
2018-06-17T08:29:38.338Z,71.9
2018-06-17T08:30:28.419Z,72.3
2018-06-17T08:31:18.190Z,72.4
2018-06-17T08:32:07.976Z,72.5
2018-06-17T08:32:58.590Z,72.6
2018-06-17T08:33:48.666Z,72.7
2018-06-17T08:34:38.162Z,72.8
2018-06-17T08:35:28.797Z,72.8
2018-06-17T08:36:18.897Z,72.6
2018-06-17T08:37:08.679Z,72.4
2018-06-17T08:37:59.013Z,72.3
2018-06-17T08:38:48.469Z,72.3
2018-06-17T08:39:38.258Z,72.3
2018-06-17T08:40:28.674Z,72.2
2018-06-17T08:41:19.232Z,72.1
2018-06-17T08:42:09.037Z,71.9
2018-06-17T08:42:59.079Z,71.9
2018-06-17T08:43:48.930Z,71.8
2018-06-17T08:44:39.481Z,71.8
2018-06-17T08:45:29.018Z,71.8
2018-06-17T08:46:19.633Z,71.9
2018-06-17T08:47:09.689Z,72.1
2018-06-17T08:47:59.766Z,72.3
2018-06-17T08:48:49.820Z,72.4
2018-06-17T08:49:39.590Z,72.5
2018-06-17T08:50:29.940Z,72.5
2018-06-17T08:51:19.708Z,72.6
2018-06-17T08:52:09.807Z,72.5
2018-06-17T08:53:00.127Z,72.6
2018-06-17T08:53:49.903Z,72.7
2018-06-17T08:54:39.975Z,72.8
2018-06-17T08:55:30.310Z,72.9
2018-06-17T08:56:20.123Z,73
2018-06-17T08:57:10.454Z,73.1
2018-06-17T08:58:00.539Z,73.3
2018-06-17T08:58:50.040Z,73.3
2018-06-17T08:59:40.104Z,73.4
2018-06-17T09:00:29.872Z,73.3
2018-06-17T09:01:20.481Z,73.3
2018-06-17T09:02:10.854Z,73.1
2018-06-17T09:03:00.885Z,72.6
2018-06-17T09:03:51.035Z,72.3
2018-06-17T09:04:41.021Z,72
2018-06-17T09:05:31.119Z,71.9
2018-06-17T09:06:20.587Z,71.8
2018-06-17T09:07:11.209Z,71.9
2018-06-17T09:08:01.294Z,72
2018-06-17T09:08:51.068Z,72.1
2018-06-17T09:09:41.425Z,72.1
2018-06-17T09:10:30.909Z,71.8
2018-06-17T09:11:21.267Z,71.8
2018-06-17T09:12:11.671Z,71.8
2018-06-17T09:13:01.398Z,72
2018-06-17T09:13:51.716Z,72.1
2018-06-17T09:14:41.791Z,72.2
2018-06-17T09:15:31.850Z,72.3
2018-06-17T09:16:21.673Z,72.5
2018-06-17T09:17:11.992Z,72.6
2018-06-17T09:18:02.041Z,72
2018-06-17T09:18:52.105Z,70.6
2018-06-17T09:19:42.230Z,69.3
2018-06-17T09:20:32.081Z,68.1
2018-06-17T09:21:22.041Z,67
2018-06-17T09:22:12.110Z,66.4
2018-06-17T09:23:02.433Z,67.3
2018-06-17T09:23:52.494Z,68.8
2018-06-17T09:24:42.305Z,69.8
2018-06-17T09:25:32.616Z,70.3
2018-06-17T09:26:22.677Z,70.6
2018-06-17T09:27:12.463Z,70.9
2018-06-17T09:28:02.844Z,71.3
2018-06-17T09:28:52.651Z,71.5
2018-06-17T09:29:42.952Z,71.9
2018-06-17T09:30:33.019Z,72.1
2018-06-17T09:31:23.104Z,72.5
2018-06-17T09:32:13.622Z,72.7
2018-06-17T09:33:03.205Z,72.9
2018-06-17T09:33:53.305Z,73.1
2018-06-17T09:34:43.338Z,73.3
2018-06-17T09:35:33.411Z,73.6
2018-06-17T09:36:23.472Z,73.9
2018-06-17T09:37:13.519Z,74.3
2018-06-17T09:38:03.507Z,74.5
2018-06-17T09:38:53.203Z,74.6
2018-06-17T09:39:43.717Z,74.8
2018-06-17T09:40:33.792Z,74.9
2018-06-17T09:41:23.576Z,75
2018-06-17T09:42:13.900Z,74.5
2018-06-17T09:43:03.972Z,73.2
2018-06-17T09:43:53.490Z,72.4
2018-06-17T09:44:44.099Z,73.1
2018-06-17T09:45:33.328Z,72.9
2018-06-17T09:46:24.274Z,71.6
2018-06-17T09:47:14.297Z,70
2018-06-17T09:48:03.530Z,69.5
2018-06-17T09:48:54.431Z,70.6
2018-06-17T09:49:44.209Z,71.9
2018-06-17T09:50:34.531Z,72.9
2018-06-17T09:51:24.629Z,73.7
2018-06-17T09:52:14.710Z,74.1
2018-06-17T09:53:04.458Z,73.6
2018-06-17T09:53:54.532Z,71.6
2018-06-17T09:54:44.892Z,69.1
2018-06-17T09:55:34.660Z,67.5
2018-06-17T09:56:24.758Z,67.9
2018-06-17T09:57:14.802Z,69.9
2018-06-17T09:58:05.127Z,71.8
2018-06-17T09:58:55.207Z,73.2
2018-06-17T09:59:45.285Z,73.6
2018-06-17T10:00:35.340Z,73.4
2018-06-17T10:01:25.492Z,73
2018-06-17T10:02:15.470Z,72.8
2018-06-17T10:03:05.235Z,73.3
2018-06-17T10:03:55.022Z,74
2018-06-17T10:04:45.640Z,74.8
2018-06-17T10:05:35.716Z,75.2
2018-06-17T10:06:25.536Z,75.4
2018-06-17T10:07:15.849Z,75.4
2018-06-17T10:08:05.634Z,75.4
2018-06-17T10:08:55.886Z,75.4
2018-06-17T10:09:45.754Z,75.7
2018-06-17T10:10:36.109Z,76.2
2018-06-17T10:11:26.171Z,76.6
2018-06-17T10:12:16.213Z,76.6
2018-06-17T10:13:06.294Z,76.4
2018-06-17T10:13:56.342Z,76.6
2018-06-17T10:14:46.415Z,76.9
2018-06-17T10:15:36.186Z,77.1
2018-06-17T10:16:26.537Z,76.3
2018-06-17T10:17:16.613Z,74.5
2018-06-17T10:18:06.673Z,73.9
2018-06-17T10:18:56.196Z,74.8
2018-06-17T10:19:46.813Z,76
2018-06-17T10:20:36.907Z,76.7
2018-06-17T10:21:26.925Z,76.9
2018-06-17T10:22:16.987Z,76.9
2018-06-17T10:23:07.066Z,75.3
2018-06-17T10:23:57.111Z,73.4
2018-06-17T10:24:47.194Z,71.7
2018-06-17T10:25:36.720Z,70.5
2018-06-17T10:26:27.335Z,69.9
2018-06-17T10:27:17.369Z,69.9
2018-06-17T10:28:07.444Z,69.9
2018-06-17T10:28:57.498Z,69.4
2018-06-17T10:29:47.579Z,68.6
2018-06-17T10:30:37.669Z,67.7
2018-06-17T10:31:27.698Z,67.9
2018-06-17T10:32:17.540Z,67.9
2018-06-17T10:33:07.550Z,67.1
2018-06-17T10:33:57.625Z,66.1
2018-06-17T10:34:47.957Z,65.3
2018-06-17T10:35:37.749Z,64.6
2018-06-17T10:36:28.121Z,63.9
2018-06-17T10:37:17.900Z,63.3
2018-06-17T10:38:08.543Z,62.8
2018-06-17T10:38:58.042Z,62.4
2018-06-17T10:39:48.092Z,62.1
2018-06-17T10:40:38.129Z,61.7
2018-06-17T10:41:28.489Z,61.2
2018-06-17T10:42:18.541Z,60.8
2018-06-17T10:43:08.589Z,60.3
2018-06-17T10:43:58.398Z,59.9
2018-06-17T10:44:48.741Z,59.6
2018-06-17T10:45:38.808Z,59.2
2018-06-17T10:46:28.846Z,58.9
2018-06-17T10:48:08.412Z,58.3
2018-06-17T10:48:59.443Z,57.9
2018-06-17T10:49:48.609Z,57.6
2018-06-17T10:50:39.111Z,57.1
2018-06-17T10:51:29.269Z,56.8
2018-06-17T10:52:19.051Z,56.4
2018-06-17T10:53:09.377Z,56
2018-06-17T10:53:59.427Z,55.5
2018-06-17T10:54:49.231Z,55.1
2018-06-17T10:55:40.025Z,54.8
2018-06-17T10:56:29.656Z,54.3
2018-06-17T10:57:19.428Z,53.9
2018-06-17T10:58:09.769Z,53.6
2018-06-17T10:58:59.273Z,53.3
2018-06-17T10:59:49.878Z,53
2018-06-17T11:00:39.928Z,52.7
2018-06-17T11:01:29.764Z,52.3
2018-06-17T11:03:09.867Z,51.6
2018-06-17T11:04:00.205Z,51.3
2018-06-17T11:04:49.985Z,51
2018-06-17T11:05:41.048Z,50.8
2018-06-17T11:06:30.125Z,50.6
2018-06-17T11:07:20.453Z,50.4
2018-06-17T11:08:10.532Z,50.3
2018-06-17T11:09:00.619Z,50.1
2018-06-17T11:09:50.409Z,49.8
2018-06-17T11:10:40.729Z,49.6
2018-06-17T11:11:30.215Z,49.4
2018-06-17T11:12:20.832Z,49.3
2018-06-17T11:13:11.094Z,49.1
2018-06-17T11:14:00.688Z,48.9
2018-06-17T11:14:51.037Z,48.8
2018-06-17T11:15:41.116Z,48.7
2018-06-17T11:16:30.627Z,48.5
2018-06-17T11:17:21.237Z,48.4
2018-06-17T11:18:11.323Z,48.4
2018-06-17T11:19:01.079Z,48.3
2018-06-17T11:19:51.184Z,48.2
2018-06-17T11:20:41.237Z,48.1
2018-06-17T11:21:31.540Z,48.1
2018-06-17T11:22:21.646Z,48.1
2018-06-17T11:23:11.422Z,48.1
2018-06-17T11:24:01.802Z,48.1
2018-06-17T11:24:51.544Z,48.1
2018-06-17T11:25:41.868Z,48.1
2018-06-17T11:26:31.790Z,48.1
2018-06-17T11:27:22.012Z,48.1
2018-06-17T11:28:11.771Z,48
2018-06-17T11:29:01.314Z,48
2018-06-17T11:29:51.636Z,48
2018-06-17T11:30:42.263Z,48.1
2018-06-17T11:31:32.324Z,48
2018-06-17T11:32:22.419Z,47.9
2018-06-17T11:33:12.175Z,47.9
2018-06-17T11:34:02.271Z,47.9
2018-06-17T11:34:52.301Z,47.9
2018-06-17T11:35:42.677Z,47.9
2018-06-17T11:36:32.704Z,47.9
2018-06-17T11:37:22.501Z,47.9
2018-06-17T11:38:12.554Z,47.9
2018-06-17T11:39:03.818Z,47.9
2018-06-17T11:39:53.023Z,47.8
2018-06-17T11:40:43.019Z,47.8
2018-06-17T11:41:32.824Z,47.8
2018-06-17T11:42:22.962Z,47.8
2018-06-17T11:43:13.240Z,47.7
2018-06-17T11:44:03.324Z,47.8
2018-06-17T11:44:53.367Z,47.8
2018-06-17T11:45:43.440Z,47.8
2018-06-17T11:46:33.213Z,47.8
2018-06-17T11:47:23.253Z,47.7
2018-06-17T11:48:13.602Z,47.6
2018-06-17T11:49:03.393Z,47.6
2018-06-17T11:49:53.454Z,47.6
2018-06-17T11:50:43.789Z,47.6
2018-06-17T11:51:33.277Z,47.6
2018-06-17T11:52:23.668Z,47.8
2018-06-17T11:53:13.714Z,47.8
2018-06-17T11:54:03.789Z,47.9
2018-06-17T11:54:54.148Z,48
2018-06-17T11:55:43.925Z,48.1
2018-06-17T11:56:33.967Z,48.3
2018-06-17T11:57:24.305Z,48.3
2018-06-17T11:58:13.882Z,48.4
2018-06-17T11:59:03.980Z,48.6
2018-06-17T11:59:54.503Z,48.8
2018-06-17T12:00:44.564Z,49.1
2018-06-17T12:01:34.644Z,49.2
2018-06-17T12:02:24.695Z,49.3
2018-06-17T12:03:14.756Z,49.5
2018-06-17T12:04:04.536Z,49.7
2018-06-17T12:04:54.592Z,49.9
2018-06-17T12:05:44.950Z,50
2018-06-17T12:06:35.008Z,50.1
2018-06-17T12:07:25.077Z,50.1
2018-06-17T12:08:15.152Z,50.2
2018-06-17T12:09:05.228Z,50.3
2018-06-17T12:09:55.279Z,50.4
2018-06-17T12:10:45.320Z,50.6
2018-06-17T12:11:35.386Z,51
2018-06-17T12:12:25.459Z,51.4
2018-06-17T12:13:15.517Z,51.8
2018-06-17T12:14:05.582Z,52.3
2018-06-17T12:14:55.394Z,52.6
2018-06-17T12:15:45.727Z,52.8
2018-06-17T12:16:35.244Z,53
2018-06-17T12:17:25.836Z,53.1
2018-06-17T12:18:15.923Z,53.2
2018-06-17T12:19:05.965Z,53.2
2018-06-17T12:19:55.824Z,53.2
2018-06-17T12:20:46.095Z,53.1
2018-06-17T12:21:36.173Z,53.1
2018-06-17T12:22:26.250Z,53.1
2018-06-17T12:23:16.323Z,53
2018-06-17T12:24:05.869Z,53.1
2018-06-17T12:24:55.958Z,53.1
2018-06-17T12:25:46.536Z,53.3
2018-06-17T12:26:36.284Z,53.8
2018-06-17T12:27:26.135Z,54.6
2018-06-17T12:28:16.418Z,55.7
2018-06-17T12:29:06.446Z,57.2
2018-06-17T12:29:56.536Z,58.9
2018-06-17T12:30:46.914Z,60.7
2018-06-17T12:31:36.919Z,62.3
2018-06-17T12:32:26.741Z,63.9
2018-06-17T12:33:16.790Z,65.4
